createdAt,value
2022-08-09T00:01:10.610Z,77.13
2022-08-09T00:04:25.161Z,77.57
2022-08-09T00:07:17.575Z,79.02
2022-08-09T00:10:25.854Z,79.36
2022-08-09T00:13:33.515Z,79.13
2022-08-09T00:16:38.366Z,79.16
2022-08-09T00:19:36.224Z,79.97
2022-08-09T00:22:44.948Z,79.57
2022-08-09T00:25:43.899Z,79.33
2022-08-09T00:28:52.067Z,78.72
2022-08-09T00:32:01.297Z,78.92
2022-08-09T00:35:10.551Z,79.06
2022-08-09T00:38:21.278Z,79.26
2022-08-09T00:44:14.579Z,79.57
2022-08-09T00:44:25.882Z,79.71
2022-08-09T00:47:25.053Z,80.11
2022-08-09T00:50:33.219Z,81.23
2022-08-09T00:53:40.595Z,81.02
2022-08-09T00:56:48.724Z,80.62
2022-08-09T00:59:58.678Z,80.72
2022-08-09T01:02:59.518Z,80.92
2022-08-09T01:06:17.417Z,80.52
2022-08-09T01:09:14.020Z,81.26
2022-08-09T01:12:21.661Z,81.57
2022-08-09T01:15:29.843Z,81.77
2022-08-09T01:18:39.052Z,81.46
2022-08-09T01:21:50.947Z,81.57
2022-08-09T01:24:50.443Z,81.57
2022-08-09T01:27:50.760Z,82.38
2022-08-09T01:31:00.003Z,81.97
2022-08-09T01:34:08.953Z,81.71
2022-08-09T01:37:17.040Z,82.92
2022-08-09T01:40:22.973Z,83.47
2022-08-09T01:43:25.619Z,84.08
2022-08-09T01:46:34.349Z,84.18
2022-08-09T01:49:41.790Z,84.18
2022-08-09T01:52:47.130Z,84.38
2022-08-09T01:55:47.240Z,84.93
2022-08-09T01:58:54.963Z,84.93
2022-08-09T02:02:03.184Z,84.83
2022-08-09T02:05:15.910Z,84.52
2022-08-09T02:08:39.194Z,84.83
2022-08-09T02:11:18.349Z,84.93
2022-08-09T02:14:26.321Z,85.24
2022-08-09T02:18:01.497Z,85.24
2022-08-09T02:20:40.436Z,85.24
2022-08-09T02:23:48.029Z,85.13
2022-08-09T02:26:49.441Z,84.83
2022-08-09T02:29:57.749Z,85.03
2022-08-09T02:32:59.370Z,84.72
2022-08-09T02:36:07.142Z,85.38
2022-08-09T02:39:07.659Z,86.19
2022-08-09T02:42:12.305Z,86.19
2022-08-09T02:45:20.076Z,86.29
2022-08-09T02:48:31.152Z,86.94
2022-08-09T02:51:28.036Z,87.04
2022-08-09T02:54:33.277Z,87.14
2022-08-09T02:58:00.733Z,86.94
2022-08-09T03:00:47.994Z,87.24
2022-08-09T03:04:17.628Z,87.34
2022-08-09T03:06:57.100Z,87.55
2022-08-09T03:10:08.007Z,87.89
2022-08-09T03:13:16.220Z,87.89
2022-08-09T03:16:23.633Z,88.20
2022-08-09T03:19:58.335Z,88.06
2022-08-09T03:22:42.194Z,87.55
2022-08-09T03:25:58.154Z,87.24
2022-08-09T03:28:45.065Z,87.55
2022-08-09T03:32:00.539Z,87.85
2022-08-09T03:34:55.865Z,87.65
2022-08-09T03:38:03.307Z,87.95
2022-08-09T03:41:15.161Z,88.16
2022-08-09T03:44:12.912Z,88.26
2022-08-09T03:47:23.161Z,88.16
2022-08-09T03:50:31.963Z,88.16
2022-08-09T03:53:39.413Z,88.06
2022-08-09T03:56:48.045Z,87.55
2022-08-09T03:59:54.601Z,87.65
2022-08-09T04:02:53.541Z,87.85
2022-08-09T04:06:01.695Z,87.85
2022-08-09T04:09:01.836Z,87.51
2022-08-09T04:12:09.735Z,87.30
2022-08-09T04:15:39.051Z,87.20
2022-08-09T04:18:25.324Z,86.86
2022-08-09T04:21:38.511Z,86.41
2022-08-09T04:24:36.910Z,85.66
2022-08-09T04:27:37.843Z,84.85
2022-08-09T04:30:45.668Z,84.55
2022-08-09T04:33:57.110Z,84.34
2022-08-09T04:36:56.403Z,84.14
2022-08-09T04:40:04.294Z,84.44
2022-08-09T04:43:11.756Z,84.10
2022-08-09T04:46:37.958Z,84.00
2022-08-09T04:49:40.220Z,83.29
2022-08-09T04:52:31.560Z,83.69
2022-08-09T04:55:58.390Z,83.59
2022-08-09T04:58:44.270Z,83.69
2022-08-09T05:01:53.803Z,83.69
2022-08-09T05:05:04.300Z,84.10
2022-08-09T05:08:05.858Z,84.10
2022-08-09T05:11:15.314Z,84.30
2022-08-09T05:14:23.395Z,84.61
2022-08-09T05:18:37.643Z,84.30
2022-08-09T05:20:29.994Z,84.30
2022-08-09T05:23:55.319Z,84.56
2022-08-09T05:26:46.310Z,84.97
2022-08-09T05:29:44.648Z,84.77
2022-08-09T05:32:54.469Z,85.27
2022-08-09T05:36:02.091Z,84.83
2022-08-09T05:39:09.666Z,84.22
2022-08-09T05:42:21.924Z,83.78
2022-08-09T05:45:22.342Z,83.54
2022-08-09T05:48:33.002Z,83.29
2022-08-09T05:51:46.145Z,83.09
2022-08-09T05:54:43.305Z,82.85
2022-08-09T05:57:56.838Z,82.65
2022-08-09T06:00:55.554Z,81.60
2022-08-09T06:04:05.748Z,80.35
2022-08-09T06:07:03.839Z,79.50
2022-08-09T06:10:15.933Z,79.10
2022-08-09T06:13:20.238Z,79.16
2022-08-09T06:16:18.150Z,78.06
2022-08-09T06:19:27.688Z,76.91
2022-08-09T06:22:36.431Z,77.42
2022-08-09T06:25:44.274Z,76.51
2022-08-09T06:28:45.915Z,76.10
2022-08-09T06:32:36.266Z,75.36
2022-08-09T06:35:00.006Z,75.16
2022-08-09T06:38:08.354Z,74.42
2022-08-09T06:41:18.852Z,73.98
2022-08-09T06:44:18.086Z,73.04
2022-08-09T06:47:30.271Z,72.84
2022-08-09T06:50:31.960Z,73.35
2022-08-09T06:53:40.090Z,73.11
2022-08-09T06:56:48.225Z,72.41
2022-08-09T07:00:49.652Z,71.87
2022-08-09T07:03:01.686Z,71.36
2022-08-09T07:06:05.390Z,70.86
2022-08-09T07:09:54.932Z,70.53
2022-08-09T07:12:20.171Z,70.63
2022-08-09T07:16:38.529Z,70.09
2022-08-09T07:18:33.655Z,70.09
2022-08-09T07:21:55.947Z,68.76
2022-08-09T07:24:49.329Z,69.73
2022-08-09T07:27:57.686Z,67.92
2022-08-09T07:31:05.885Z,67.08
2022-08-09T07:34:20.712Z,67.18
2022-08-09T07:37:17.714Z,67.69
2022-08-09T07:40:20.703Z,66.85
2022-08-09T07:43:28.959Z,66.35
2022-08-09T07:46:27.730Z,65.92
2022-08-09T07:49:36.012Z,65.12
2022-08-09T07:52:41.421Z,65.39
2022-08-09T07:56:03.327Z,64.59
2022-08-09T07:58:56.405Z,63.85
2022-08-09T08:01:56.922Z,62.62
2022-08-09T08:05:04.699Z,61.12
2022-08-09T08:09:00.003Z,61.49
2022-08-09T08:12:24.707Z,60.79
2022-08-09T08:14:21.125Z,59.49
2022-08-09T08:17:35.105Z,58.80
2022-08-09T08:20:28.876Z,58.97
2022-08-09T08:23:27.665Z,57.34
2022-08-09T08:26:55.235Z,57.04
2022-08-09T08:29:48.659Z,56.64
2022-08-09T08:32:52.602Z,57.91
2022-08-09T08:35:58.707Z,58.18
2022-08-09T08:38:54.749Z,57.28
2022-08-09T08:42:03.574Z,57.26
2022-08-09T08:45:13.536Z,56.36
2022-08-09T08:48:21.238Z,56.63
2022-08-09T08:51:41.535Z,55.93
2022-08-09T08:54:34.296Z,55.63
2022-08-09T08:57:42.638Z,55.91
2022-08-09T09:00:54.304Z,54.81
2022-08-09T09:03:53.786Z,55.91
2022-08-09T09:07:03.419Z,54.79
2022-08-09T09:10:13.715Z,53.39
2022-08-09T09:13:22.410Z,53.89
2022-08-09T09:16:33.873Z,54.49
2022-08-09T09:19:41.757Z,54.16
2022-08-09T09:22:38.623Z,53.14
2022-08-09T09:26:01.611Z,52.02
2022-08-09T09:29:03.525Z,52.22
2022-08-09T09:32:03.997Z,51.42
2022-08-09T09:35:09.090Z,51.32
2022-08-09T09:38:06.881Z,51.22
2022-08-09T09:41:13.034Z,50.70
2022-08-09T09:44:25.402Z,49.78
2022-08-09T09:47:23.281Z,49.01
2022-08-09T09:50:23.945Z,50.01
2022-08-09T09:53:44.216Z,50.78
2022-08-09T09:56:31.397Z,49.98
2022-08-09T09:59:35.188Z,50.35
2022-08-09T10:02:33.006Z,49.04
2022-08-09T10:06:03.225Z,48.62
2022-08-09T10:08:57.149Z,47.92
2022-08-09T10:12:00.091Z,48.42
2022-08-09T10:14:57.304Z,47.11
2022-08-09T10:18:05.152Z,47.09
2022-08-09T10:21:14.718Z,46.59
2022-08-09T10:24:25.606Z,45.79
2022-08-09T10:27:34.654Z,46.79
2022-08-09T10:32:11.899Z,46.61
2022-08-09T10:34:08.941Z,46.98
2022-08-09T10:36:45.110Z,45.60
2022-08-09T10:39:53.183Z,45.92
2022-08-09T10:43:01.547Z,46.64
2022-08-09T10:46:09.532Z,46.73
2022-08-09T10:49:11.552Z,46.73
2022-08-09T10:52:21.931Z,46.73
2022-08-09T10:55:23.555Z,46.34
2022-08-09T10:58:32.375Z,45.72
2022-08-09T11:03:15.648Z,44.93
2022-08-09T11:04:56.203Z,45.25
2022-08-09T11:07:57.145Z,46.61
2022-08-09T11:11:00.571Z,44.90
2022-08-09T11:14:00.745Z,44.29
2022-08-09T11:17:10.108Z,44.19
2022-08-09T11:20:22.120Z,44.98
2022-08-09T11:23:24.062Z,43.79
2022-08-09T11:26:26.628Z,44.39
2022-08-09T11:30:04.676Z,43.57
2022-08-09T11:32:40.563Z,43.65
2022-08-09T11:35:52.031Z,44.54
2022-08-09T11:38:48.825Z,43.61
2022-08-09T11:41:58.907Z,41.39
2022-08-09T11:45:07.285Z,41.81
2022-08-09T11:48:25.065Z,41.71
2022-08-09T11:52:49.616Z,42.32
2022-08-09T11:54:30.046Z,43.46
2022-08-09T11:57:47.362Z,44.37
2022-08-09T12:00:35.443Z,44.59
2022-08-09T12:03:55.519Z,44.19
2022-08-09T12:06:53.020Z,44.07
2022-08-09T12:09:53.035Z,42.57
2022-08-09T12:13:03.701Z,43.06
2022-08-09T12:16:07.790Z,42.62
2022-08-09T12:19:12.727Z,42.97
2022-08-09T12:22:20.679Z,41.38
2022-08-09T12:25:36.525Z,42.38
2022-08-09T12:29:09.710Z,42.22
2022-08-09T12:32:02.437Z,42.84
2022-08-09T12:34:44.421Z,42.86
2022-08-09T12:37:53.953Z,43.63
2022-08-09T12:41:02.011Z,43.53
2022-08-09T12:44:12.944Z,42.94
2022-08-09T12:47:10.782Z,42.40
2022-08-09T12:50:24.933Z,41.38
2022-08-09T12:53:28.695Z,40.98
2022-08-09T12:56:43.882Z,40.86
2022-08-09T12:59:57.497Z,40.66
2022-08-09T13:02:38.469Z,42.08
2022-08-09T13:05:51.677Z,42.40
2022-08-09T13:08:44.190Z,42.52
2022-08-09T13:11:46.884Z,43.33
2022-08-09T13:14:55.244Z,43.13
2022-08-09T13:18:06.060Z,41.53
2022-08-09T13:22:37.160Z,41.53
2022-08-09T13:24:44.608Z,42.19
2022-08-09T13:27:17.283Z,40.64
2022-08-09T13:30:51.076Z,38.73
2022-08-09T13:33:35.875Z,38.64
2022-08-09T13:36:41.540Z,39.04
2022-08-09T13:41:55.827Z,39.54
2022-08-09T13:42:45.894Z,40.25
2022-08-09T13:46:07.994Z,40.13
2022-08-09T13:48:58.923Z,40.27
2022-08-09T13:52:09.637Z,40.11
2022-08-09T13:55:21.098Z,40.98
2022-08-09T13:58:18.742Z,39.97
2022-08-09T14:02:01.043Z,38.77
2022-08-09T14:04:31.645Z,39.28
2022-08-09T14:07:42.058Z,39.30
2022-08-09T14:10:49.087Z,40.41
2022-08-09T14:14:24.887Z,39.20
2022-08-09T14:16:51.170Z,39.79
2022-08-09T14:19:59.171Z,39.18
2022-08-09T14:23:07.231Z,38.37
2022-08-09T14:26:15.093Z,39.34
2022-08-09T14:30:18.358Z,38.47
2022-08-09T14:32:31.731Z,38.20
2022-08-09T14:35:38.758Z,38.39
2022-08-09T14:38:35.780Z,38.51
2022-08-09T14:41:46.952Z,38.63
2022-08-09T14:45:00.132Z,37.98
2022-08-09T14:48:00.203Z,37.59
2022-08-09T14:51:09.055Z,38.37
2022-08-09T14:54:17.024Z,37.90
2022-08-09T14:57:20.222Z,38.49
2022-08-09T15:00:27.044Z,37.78
2022-08-09T15:03:27.646Z,37.87
2022-08-09T15:06:36.686Z,37.59
2022-08-09T15:10:04.486Z,38.12
2022-08-09T15:12:50.335Z,39.20
2022-08-09T15:15:59.075Z,37.98
2022-08-09T15:19:18.131Z,37.49
2022-08-09T15:22:12.338Z,37.21
2022-08-09T15:25:14.960Z,38.12
2022-08-09T15:28:26.238Z,37.90
2022-08-09T15:31:28.589Z,37.78
2022-08-09T15:34:32.743Z,37.88
2022-08-09T15:37:37.417Z,37.37
2022-08-09T15:40:38.047Z,36.88
2022-08-09T15:43:40.957Z,36.70
2022-08-09T15:46:50.769Z,37.30
2022-08-09T15:50:03.561Z,37.60
2022-08-09T15:53:07.048Z,37.49
2022-08-09T15:56:29.221Z,37.11
2022-08-09T15:59:12.551Z,38.29
2022-08-09T16:02:26.984Z,37.30
2022-08-09T16:05:24.009Z,37.62
2022-08-09T16:08:32.239Z,37.21
2022-08-09T16:11:41.559Z,37.52
2022-08-09T16:14:42.264Z,37.54
2022-08-09T16:17:51.072Z,37.94
2022-08-09T16:20:58.863Z,38.45
2022-08-09T16:24:08.871Z,38.65
2022-08-09T16:27:13.186Z,38.55
2022-08-09T16:30:28.591Z,38.55
2022-08-09T16:33:26.119Z,37.16
2022-08-09T16:36:34.330Z,38.43
2022-08-09T16:39:54.708Z,36.65
2022-08-09T16:42:48.861Z,37.54
2022-08-09T16:45:53.396Z,37.34
2022-08-09T16:49:17.731Z,37.96
2022-08-09T16:52:07.627Z,37.36
2022-08-09T16:55:18.839Z,37.77
2022-08-09T16:58:27.640Z,37.98
2022-08-09T17:01:35.629Z,37.58
2022-08-09T17:04:44.539Z,38.19
2022-08-09T17:08:47.087Z,39.08
2022-08-09T17:10:58.685Z,38.21
2022-08-09T17:14:07.297Z,38.23
2022-08-09T17:17:27.556Z,38.53
2022-08-09T17:20:30.161Z,38.72
2022-08-09T17:24:20.774Z,38.64
2022-08-09T17:26:38.336Z,38.44
2022-08-09T17:29:38.084Z,38.56
2022-08-09T17:32:38.784Z,38.85
2022-08-09T17:35:43.798Z,40.64
2022-08-09T17:38:57.465Z,39.77
2022-08-09T17:41:55.817Z,42.25
2022-08-09T17:44:58.550Z,40.38
2022-08-09T17:48:09.282Z,41.38
2022-08-09T17:51:19.630Z,42.49
2022-08-09T17:54:29.589Z,43.98
2022-08-09T17:58:03.150Z,44.89
2022-08-09T18:00:46.460Z,46.20
2022-08-09T18:03:46.246Z,46.03
2022-08-09T18:06:55.858Z,47.14
2022-08-09T18:10:06.652Z,48.16
2022-08-09T18:13:53.706Z,47.29
2022-08-09T18:16:29.163Z,47.89
2022-08-09T18:20:58.134Z,46.00
2022-08-09T18:22:33.935Z,46.49
2022-08-09T18:25:50.509Z,46.09
2022-08-09T18:30:40.710Z,45.79
2022-08-09T18:31:54.918Z,45.10
2022-08-09T18:34:48.347Z,45.10
2022-08-09T18:37:56.099Z,45.30
2022-08-09T18:41:04.572Z,45.70
2022-08-09T18:44:12.953Z,45.79
2022-08-09T18:47:24.014Z,46.91
2022-08-09T18:50:25.004Z,46.72
2022-08-09T18:53:36.777Z,48.23
2022-08-09T18:56:35.207Z,48.33
2022-08-09T18:59:51.313Z,52.25
2022-08-09T19:02:48.425Z,52.07
2022-08-09T19:06:04.241Z,50.99
2022-08-09T19:09:03.375Z,52.22
2022-08-09T19:12:11.222Z,52.25
2022-08-09T19:15:20.280Z,52.77
2022-08-09T19:18:35.089Z,53.57
2022-08-09T19:21:47.517Z,53.99
2022-08-09T19:25:11.279Z,54.72
2022-08-09T19:27:44.588Z,55.12
2022-08-09T19:30:52.593Z,55.55
2022-08-09T19:34:01.565Z,55.98
2022-08-09T19:37:09.480Z,55.98
2022-08-09T19:40:19.204Z,56.40
2022-08-09T19:44:01.219Z,56.23
2022-08-09T19:46:34.019Z,56.73
2022-08-09T19:50:09.091Z,58.46
2022-08-09T19:52:33.486Z,59.66
2022-08-09T19:56:03.160Z,57.48
2022-08-09T19:58:56.417Z,59.09
2022-08-09T20:02:03.088Z,60.19
2022-08-09T20:04:57.844Z,60.72
2022-08-09T20:08:06.072Z,60.12
2022-08-09T20:11:14.042Z,59.05
2022-08-09T20:14:24.438Z,59.95
2022-08-09T20:17:41.565Z,59.78
2022-08-09T20:20:38.609Z,60.68
2022-08-09T20:23:47.523Z,60.68
2022-08-09T20:26:55.398Z,61.21
2022-08-09T20:29:56.027Z,61.11
2022-08-09T20:33:06.482Z,62.42
2022-08-09T20:36:14.253Z,60.91
2022-08-09T20:40:13.121Z,60.91
2022-08-09T20:42:27.882Z,60.94
2022-08-09T20:46:02.029Z,62.45
2022-08-09T20:48:42.030Z,63.28
2022-08-09T20:51:50.674Z,63.28
2022-08-09T20:54:58.789Z,61.98
2022-08-09T20:58:20.216Z,62.98
2022-08-09T21:01:34.931Z,64.59
2022-08-09T21:05:57.997Z,62.91
2022-08-09T21:07:30.159Z,62.61
2022-08-09T21:10:30.601Z,63.11
2022-08-09T21:13:59.100Z,62.61
2022-08-09T21:16:44.045Z,62.61
2022-08-09T21:20:18.318Z,63.24
2022-08-09T21:22:59.300Z,64.15
2022-08-09T21:26:07.874Z,64.48
2022-08-09T21:29:15.270Z,63.87
2022-08-09T21:32:19.857Z,64.78
2022-08-09T21:35:25.347Z,65.89
2022-08-09T21:38:31.255Z,65.62
2022-08-09T21:42:03.589Z,66.73
2022-08-09T21:44:45.084Z,66.83
2022-08-09T21:47:53.005Z,67.63
2022-08-09T21:50:52.561Z,66.93
2022-08-09T21:54:01.115Z,66.13
2022-08-09T21:57:37.019Z,67.63
2022-08-09T22:00:14.381Z,68.74
2022-08-09T22:03:25.386Z,67.87
2022-08-09T22:06:33.368Z,67.57
2022-08-09T22:09:43.502Z,66.96
2022-08-09T22:12:52.034Z,67.47
2022-08-09T22:15:59.667Z,68.17
2022-08-09T22:19:53.227Z,69.48
2022-08-09T22:22:13.208Z,68.27
2022-08-09T22:26:06.969Z,68.98
2022-08-09T22:28:32.510Z,68.17
2022-08-09T22:31:30.270Z,67.77
2022-08-09T22:34:41.112Z,67.67
2022-08-09T22:37:40.421Z,68.37
2022-08-09T22:40:39.421Z,69.31
2022-08-09T22:44:02.731Z,69.52
2022-08-09T22:48:10.965Z,69.65
2022-08-09T22:49:55.624Z,69.24
2022-08-09T22:53:05.001Z,70.09
2022-08-09T22:56:33.174Z,71.00
2022-08-09T22:59:55.658Z,71.50
2022-08-09T23:02:24.911Z,71.23
2022-08-09T23:05:33.099Z,71.73
2022-08-09T23:08:43.097Z,71.94
2022-08-09T23:11:50.878Z,71.80
2022-08-09T23:15:00.074Z,71.80
2022-08-09T23:18:07.782Z,71.44
2022-08-09T23:21:15.613Z,71.73
2022-08-09T23:24:20.634Z,72.88
2022-08-09T23:27:28.916Z,73.99
2022-08-09T23:30:36.668Z,73.90
2022-08-09T23:33:44.416Z,73.79
2022-08-09T23:36:52.442Z,73.69
2022-08-09T23:40:00.091Z,73.99
2022-08-09T23:43:09.200Z,74.10
2022-08-09T23:46:17.403Z,75.24
2022-08-09T23:49:25.051Z,75.55
2022-08-09T23:52:33.574Z,75.24
2022-08-09T23:55:49.871Z,75.24
2022-08-09T23:58:47.113Z,74.90
